Time;durP1;ratioP1;P1;durP2;ratioP2;P2;SDS_P1;SDS_P2;PMS_P1;PMS_P2;Temp;Humidity;BMP_temperature;BMP_pressure;BME280_temperature;BME280_humidity;BME280_pressure;Samples;Min_cycle;Max_cycle;Signal;HPM_P1;HPM_P2
2022/05/16 00:00:24;;;;;;;3.67;2.15;;;13.80;99.90;;;;;;5081816;28;20207;-68
2022/05/16 00:03:15;;;;;;;6.40;2.20;;;13.80;99.90;;;;;;5097332;28;20720;-69
2022/05/16 00:06:03;;;;;;;3.60;2.00;;;13.90;99.90;;;;;;5095688;28;20230;-68
2022/05/16 00:08:55;;;;;;;6.28;2.25;;;13.90;99.90;;;;;;5084851;28;20751;-69
2022/05/16 00:11:44;;;;;;;4.47;2.00;;;13.80;99.90;;;;;;5083287;28;20295;-67
2022/05/16 00:14:37;;;;;;;5.80;2.13;;;13.80;99.90;;;;;;5094344;27;20226;-69
2022/05/16 00:17:26;;;;;;;3.92;2.17;;;13.80;99.90;;;;;;5097632;28;20219;-69
2022/05/16 00:20:17;;;;;;;5.43;2.33;;;13.70;99.90;;;;;;5094214;27;20534;-68
2022/05/16 00:23:05;;;;;;;4.65;2.00;;;13.70;99.90;;;;;;5103011;27;20223;-69
2022/05/16 00:25:54;;;;;;;4.75;2.25;;;13.80;99.90;;;;;;5093484;27;20223;-68
2022/05/16 00:28:44;;;;;;;3.75;1.70;;;13.90;99.90;;;;;;5097166;28;20219;-68
2022/05/16 00:31:35;;;;;;;5.97;2.13;;;13.80;99.90;;;;;;5082796;27;20218;-69
2022/05/16 00:34:24;;;;;;;6.18;2.47;;;13.80;99.90;;;;;;5096017;28;20219;-68
2022/05/16 00:37:15;;;;;;;5.20;2.17;;;13.70;99.90;;;;;;5089484;28;20245;-70
2022/05/16 00:40:04;;;;;;;6.13;2.00;;;13.70;99.90;;;;;;5097543;27;20223;-68
2022/05/16 00:43:02;;;;;;;9.13;2.28;;;13.80;99.90;;;;;;5080455;28;20235;-68
2022/05/16 00:45:51;;;;;;;6.40;2.00;;;13.60;99.90;;;;;;5093519;27;20246;-69
2022/05/16 00:48:40;;;;;;;5.60;1.80;;;13.60;99.90;;;;;;5087034;27;20713;-68
2022/05/16 00:51:33;;;;;;;4.88;1.85;;;13.60;99.90;;;;;;5096490;28;20251;-69
2022/05/16 00:54:26;;;;;;;5.78;2.03;;;13.50;99.90;;;;;;5091271;28;20215;-69
2022/05/16 00:57:20;;;;;;;5.07;2.30;;;13.50;99.90;;;;;;5084599;28;20589;-69
2022/05/16 01:00:11;;;;;;;6.03;2.60;;;13.40;99.90;;;;;;5094871;27;20214;-69
2022/05/16 01:06:10;;;;;;;5.15;1.85;;;13.30;99.90;;;;;;5102428;27;20219;-68
2022/05/16 01:08:58;;;;;;;5.70;2.30;;;13.20;99.90;;;;;;5092543;28;20984;-70
2022/05/16 01:11:48;;;;;;;7.18;2.60;;;13.20;99.90;;;;;;5081842;27;20227;-68
2022/05/16 01:14:47;;;;;;;4.63;2.10;;;13.30;99.90;;;;;;5077774;28;20723;-67
2022/05/16 01:17:37;;;;;;;3.58;2.13;;;13.20;99.90;;;;;;5091592;28;20221;-67
2022/05/16 01:20:41;;;;;;;5.00;2.20;;;13.30;99.90;;;;;;5091596;28;20256;-67
2022/05/16 01:23:35;;;;;;;4.40;2.03;;;13.20;99.90;;;;;;5090986;28;20237;-67
2022/05/16 01:26:26;;;;;;;4.95;2.00;;;13.10;99.90;;;;;;5090326;28;20226;-67
2022/05/16 01:29:14;;;;;;;5.93;2.20;;;13.00;99.90;;;;;;5089218;28;20265;-70
2022/05/16 01:32:04;;;;;;;4.55;2.08;;;13.20;99.90;;;;;;5086877;28;20674;-68
2022/05/16 01:34:52;;;;;;;6.43;2.25;;;12.90;99.90;;;;;;5097387;27;20215;-68
2022/05/16 01:40:45;;;;;;;7.50;2.40;;;12.90;99.90;;;;;;5072755;28;20305;-67
2022/05/16 01:43:39;;;;;;;5.10;2.33;;;12.70;99.90;;;;;;5077302;28;20284;-69
2022/05/16 01:46:31;;;;;;;4.15;2.10;;;12.80;99.90;;;;;;5080220;28;20241;-71
2022/05/16 01:49:20;;;;;;;4.28;2.20;;;12.80;99.90;;;;;;5094656;28;20699;-68
2022/05/16 01:52:09;;;;;;;6.95;2.63;;;12.50;99.90;;;;;;5094496;27;20248;-68
2022/05/16 01:54:59;;;;;;;5.03;2.30;;;12.50;99.90;;;;;;5091096;27;20226;-68
2022/05/16 01:57:49;;;;;;;3.33;1.90;;;12.40;99.90;;;;;;5090261;28;20301;-69
2022/05/16 02:00:38;;;;;;;3.42;2.28;;;12.20;99.90;;;;;;5077131;28;20219;-68
2022/05/16 02:03:27;;;;;;;5.32;1.92;;;12.30;99.90;;;;;;5090425;28;20988;-67
2022/05/16 02:06:16;;;;;;;6.65;1.98;;;12.30;99.90;;;;;;5091762;28;20334;-66
2022/05/16 02:09:05;;;;;;;3.78;2.08;;;12.40;99.90;;;;;;5088267;28;20893;-67
2022/05/16 02:11:57;;;;;;;5.45;2.15;;;12.40;99.90;;;;;;5090377;27;20222;-68
2022/05/16 02:14:47;;;;;;;5.80;2.05;;;12.30;99.90;;;;;;5091741;27;20232;-67
2022/05/16 02:17:37;;;;;;;4.60;1.95;;;12.20;99.90;;;;;;5095039;27;20882;-67
2022/05/16 02:20:27;;;;;;;5.07;2.15;;;12.30;99.90;;;;;;5093345;28;20347;-69
2022/05/16 02:26:22;;;;;;;7.07;2.10;;;12.30;99.90;;;;;;5094034;28;20242;-67
2022/05/16 02:29:11;;;;;;;4.35;1.92;;;12.20;99.90;;;;;;5095709;28;20223;-68
2022/05/16 02:32:01;;;;;;;5.72;2.03;;;12.40;99.90;;;;;;5090930;27;20686;-66
2022/05/16 02:34:50;;;;;;;5.05;2.13;;;12.30;99.90;;;;;;5089467;28;20223;-68
2022/05/16 02:37:39;;;;;;;3.83;2.08;;;12.40;99.90;;;;;;5094767;28;20234;-68
2022/05/16 02:40:29;;;;;;;4.90;2.25;;;12.60;99.90;;;;;;5097118;28;20244;-69
2022/05/16 02:43:18;;;;;;;4.40;2.20;;;12.50;99.90;;;;;;5097984;27;20234;-69
2022/05/16 02:46:06;;;;;;;5.60;2.10;;;12.30;99.90;;;;;;5090407;28;20770;-68
2022/05/16 02:49:05;;;;;;;5.10;2.65;;;12.20;99.90;;;;;;5097276;28;20221;-68
2022/05/16 02:51:54;;;;;;;3.70;1.90;;;12.40;99.90;;;;;;5093796;28;20215;-69
2022/05/16 02:54:42;;;;;;;4.72;1.90;;;12.50;99.90;;;;;;5092066;28;20241;-68
2022/05/16 02:57:35;;;;;;;7.30;2.20;;;12.30;99.90;;;;;;5076431;28;20865;-67
2022/05/16 03:00:24;;;;;;;5.60;2.10;;;12.20;99.90;;;;;;5087562;28;21014;-68
2022/05/16 03:03:13;;;;;;;6.25;2.17;;;12.30;99.90;;;;;;5090446;28;20219;-68
2022/05/16 03:06:08;;;;;;;7.93;2.30;;;12.40;99.90;;;;;;5093589;28;20725;-67
2022/05/16 03:08:57;;;;;;;5.95;2.05;;;12.30;99.90;;;;;;5071869;28;20811;-67
2022/05/16 03:11:46;;;;;;;4.80;1.88;;;12.20;99.90;;;;;;5092318;28;20221;-68
2022/05/16 03:14:35;;;;;;;4.60;1.90;;;12.40;99.90;;;;;;5093685;28;20234;-68
2022/05/16 03:17:24;;;;;;;4.72;1.90;;;12.30;99.90;;;;;;5094907;27;20249;-68
2022/05/16 03:20:16;;;;;;;5.28;1.80;;;12.20;99.90;;;;;;5098063;27;20215;-69
2022/05/16 03:23:06;;;;;;;8.18;1.90;;;12.20;99.90;;;;;;5094110;28;20952;-69
2022/05/16 03:25:55;;;;;;;4.70;2.13;;;12.30;99.90;;;;;;5095836;28;20267;-68
2022/05/16 03:28:43;;;;;;;4.75;2.22;;;12.30;99.90;;;;;;5096456;28;20241;-67
2022/05/16 03:31:32;;;;;;;6.75;2.53;;;12.50;99.90;;;;;;5082488;28;20708;-69
2022/05/16 03:34:21;;;;;;;5.95;2.20;;;12.60;99.90;;;;;;5075566;28;20230;-69
2022/05/16 03:37:10;;;;;;;5.32;2.15;;;12.60;99.90;;;;;;5093690;28;20372;-68
2022/05/16 03:43:07;;;;;;;6.30;2.10;;;12.30;99.90;;;;;;5095243;28;20303;-67
2022/05/16 03:45:56;;;;;;;4.32;1.95;;;12.20;99.90;;;;;;5096063;27;20226;-67
2022/05/16 03:48:45;;;;;;;6.18;2.30;;;12.10;99.90;;;;;;5093468;27;20226;-68
2022/05/16 03:51:35;;;;;;;8.43;2.40;;;12.50;99.90;;;;;;5098391;27;20231;-69
2022/05/16 03:54:23;;;;;;;6.47;2.35;;;12.60;99.90;;;;;;5092277;28;20222;-67
2022/05/16 03:57:13;;;;;;;5.63;2.13;;;12.70;99.90;;;;;;5095045;27;20271;-69
2022/05/16 04:00:03;;;;;;;6.38;2.17;;;12.70;99.90;;;;;;5079058;28;20227;-68
2022/05/16 04:03:03;;;;;;;7.20;2.20;;;12.80;99.90;;;;;;5086565;27;20227;-68
2022/05/16 04:05:51;;;;;;;9.82;2.55;;;12.80;99.90;;;;;;5094924;27;20223;-68
2022/05/16 04:08:42;;;;;;;7.15;2.33;;;12.80;99.90;;;;;;5093200;27;20222;-70
2022/05/16 04:11:30;;;;;;;5.43;2.08;;;13.00;99.90;;;;;;5099548;27;20233;-68
2022/05/16 04:14:21;;;;;;;5.13;1.90;;;12.80;99.90;;;;;;5092466;27;20222;-69
2022/05/16 04:17:10;;;;;;;5.28;2.30;;;12.90;99.90;;;;;;5097152;27;20667;-69
2022/05/16 04:19:59;;;;;;;4.95;2.03;;;12.90;99.90;;;;;;5071914;28;20206;-69
2022/05/16 04:22:48;;;;;;;5.47;2.22;;;13.00;99.90;;;;;;5096828;27;20251;-68
2022/05/16 04:25:41;;;;;;;7.20;1.95;;;13.10;99.90;;;;;;5082986;27;20231;-67
2022/05/16 04:28:33;;;;;;;4.63;2.10;;;13.10;99.90;;;;;;5082253;27;20225;-67
2022/05/16 04:31:24;;;;;;;5.75;2.17;;;13.00;99.90;;;;;;5097029;28;20224;-69
2022/05/16 04:34:12;;;;;;;7.25;2.13;;;13.00;99.90;;;;;;5094452;28;20219;-68
2022/05/16 04:37:01;;;;;;;6.53;2.20;;;13.40;99.90;;;;;;5095643;27;20227;-66
2022/05/16 04:39:50;;;;;;;6.85;2.47;;;13.40;99.90;;;;;;5093129;28;20650;-68
2022/05/16 04:42:41;;;;;;;6.45;2.13;;;13.50;99.90;;;;;;5093801;27;20280;-67
2022/05/16 04:45:31;;;;;;;6.18;2.10;;;13.50;99.90;;;;;;5093308;27;20415;-69
2022/05/16 04:48:22;;;;;;;5.00;2.28;;;13.30;99.90;;;;;;5096452;27;20246;-67
2022/05/16 04:51:11;;;;;;;3.67;2.00;;;13.30;99.90;;;;;;5096218;27;20697;-68
2022/05/16 04:54:00;;;;;;;6.25;2.05;;;13.30;99.90;;;;;;5079363;28;20705;-69
2022/05/16 04:56:51;;;;;;;8.27;2.40;;;13.40;99.90;;;;;;5081476;28;20800;-68
2022/05/16 04:59:40;;;;;;;9.85;2.28;;;13.60;99.90;;;;;;5095618;28;20731;-68
2022/05/16 05:02:28;;;;;;;5.03;2.25;;;13.60;99.90;;;;;;5086689;28;20814;-68
2022/05/16 05:05:20;;;;;;;3.80;1.95;;;13.50;99.90;;;;;;5092670;28;20230;-68
2022/05/16 05:08:09;;;;;;;9.60;2.00;;;13.60;99.90;;;;;;5085972;27;20295;-68
2022/05/16 05:17:12;;;;;;;8.15;2.50;;;13.70;99.90;;;;;;5092759;27;20227;-66
2022/05/16 05:20:00;;;;;;;5.28;2.22;;;13.70;99.90;;;;;;5096126;27;20349;-67
2022/05/16 05:22:54;;;;;;;7.50;2.30;;;13.80;99.90;;;;;;5092258;27;20227;-67
2022/05/16 05:25:42;;;;;;;5.57;2.67;;;13.90;99.90;;;;;;5090223;28;20549;-69
2022/05/16 05:28:31;;;;;;;7.85;2.75;;;13.90;99.90;;;;;;5090888;28;20381;-68
2022/05/16 05:31:25;;;;;;;8.35;2.60;;;14.10;99.90;;;;;;5096815;27;20698;-68
2022/05/16 05:34:14;;;;;;;5.00;2.35;;;14.00;99.90;;;;;;5081647;27;20218;-69
2022/05/16 05:37:04;;;;;;;6.70;2.15;;;13.90;99.90;;;;;;5081023;28;21381;-67
2022/05/16 05:39:54;;;;;;;6.78;2.38;;;13.80;99.90;;;;;;5085878;28;20228;-68
2022/05/16 05:42:43;;;;;;;4.13;1.80;;;14.00;99.90;;;;;;5095497;27;20584;-67
2022/05/16 05:45:32;;;;;;;4.63;1.80;;;13.50;99.90;;;;;;5077131;28;20302;-68
2022/05/16 05:48:21;;;;;;;4.80;2.00;;;13.60;99.90;;;;;;5078681;28;20309;-69
2022/05/16 05:51:10;;;;;;;6.72;2.20;;;14.00;99.90;;;;;;5078970;28;20283;-68
2022/05/16 05:53:58;;;;;;;5.95;2.20;;;14.30;99.90;;;;;;5093196;27;20224;-68
2022/05/16 05:56:48;;;;;;;5.32;2.20;;;14.90;99.90;;;;;;5092555;27;20219;-68
2022/05/16 05:59:38;;;;;;;6.55;2.50;;;15.00;99.80;;;;;;5097435;27;20218;-69
2022/05/16 06:02:26;;;;;;;4.75;2.00;;;14.90;99.90;;;;;;5098523;27;20238;-68
2022/05/16 06:05:17;;;;;;;5.72;2.28;;;14.90;99.90;;;;;;5081659;28;20723;-70
2022/05/16 06:08:07;;;;;;;4.05;1.90;;;14.70;99.90;;;;;;5090044;27;20733;-68
2022/05/16 06:10:57;;;;;;;7.95;2.20;;;14.40;99.90;;;;;;5095390;27;20214;-68
2022/05/16 06:13:47;;;;;;;5.10;2.40;;;14.30;99.90;;;;;;5092022;28;20584;-68
2022/05/16 06:16:35;;;;;;;7.63;2.50;;;14.10;99.90;;;;;;5078515;28;20264;-69
2022/05/16 06:19:24;;;;;;;5.22;2.03;;;14.20;99.90;;;;;;5081413;28;20238;-67
2022/05/16 06:22:13;;;;;;;5.18;2.08;;;14.50;99.90;;;;;;5092443;27;20326;-70
2022/05/16 06:28:22;;;;;;;5.03;1.80;;;14.50;99.90;;;;;;5010380;28;20241;-69
2022/05/16 06:31:12;;;;;;;5.70;2.15;;;14.60;99.80;;;;;;5096863;27;20744;-69
2022/05/16 06:34:01;;;;;;;5.43;1.88;;;14.60;99.90;;;;;;5091607;28;20227;-69
2022/05/16 06:36:50;;;;;;;6.15;2.10;;;14.70;99.80;;;;;;5077963;28;20281;-68
2022/05/16 06:39:39;;;;;;;6.28;2.20;;;15.00;99.10;;;;;;5100463;28;20227;-69
2022/05/16 06:42:27;;;;;;;4.75;1.73;;;14.90;98.80;;;;;;5078212;28;20222;-68
2022/05/16 06:45:17;;;;;;;6.88;1.83;;;15.20;97.50;;;;;;5093226;27;20227;-70
2022/05/16 06:48:09;;;;;;;5.03;1.70;;;15.40;95.60;;;;;;5094193;28;20219;-67
2022/05/16 06:50:58;;;;;;;7.20;1.88;;;15.20;95.10;;;;;;5094238;28;20539;-69
2022/05/16 06:53:47;;;;;;;7.82;1.83;;;15.40;94.70;;;;;;5080279;28;20226;-69
2022/05/16 06:56:35;;;;;;;8.30;1.98;;;15.50;93.20;;;;;;5095782;28;20688;-69
2022/05/16 06:59:24;;;;;;;3.00;1.40;;;15.50;93.10;;;;;;5099768;28;20333;-68
2022/05/16 07:02:13;;;;;;;5.30;1.50;;;16.00;91.40;;;;;;5095236;28;20215;-67
2022/05/16 07:05:04;;;;;;;6.70;1.80;;;16.10;90.30;;;;;;5086540;28;20215;-68
2022/05/16 07:07:52;;;;;;;4.93;1.85;;;16.00;90.70;;;;;;5093156;28;20267;-68
2022/05/16 07:10:41;;;;;;;4.38;1.50;;;16.00;89.60;;;;;;5094715;28;20229;-69
2022/05/16 07:13:30;;;;;;;3.30;1.33;;;16.00;90.60;;;;;;5080385;28;20229;-68
2022/05/16 07:16:19;;;;;;;4.57;1.10;;;16.20;89.00;;;;;;5076192;28;20645;-69
2022/05/16 07:19:08;;;;;;;5.32;1.50;;;16.50;88.90;;;;;;5094515;28;20231;-69
2022/05/16 07:21:58;;;;;;;5.65;1.55;;;16.30;86.50;;;;;;5095482;28;20733;-69
2022/05/16 07:24:47;;;;;;;4.40;1.35;;;16.70;84.80;;;;;;5074487;28;20269;-68
2022/05/16 07:30:42;;;;;;;4.78;1.60;;;17.70;77.40;;;;;;5073584;28;20230;-69
2022/05/16 07:33:30;;;;;;;4.05;1.58;;;18.80;75.70;;;;;;5077272;28;20337;-68
2022/05/16 07:36:19;;;;;;;9.02;1.25;;;18.90;72.70;;;;;;5091576;28;20242;-69
2022/05/16 07:39:09;;;;;;;1.92;1.00;;;18.60;70.30;;;;;;5088611;28;20236;-69
2022/05/16 07:41:59;;;;;;;6.13;1.20;;;18.70;68.00;;;;;;5096536;28;20998;-69
2022/05/16 07:44:50;;;;;;;2.92;1.00;;;20.30;66.40;;;;;;5090662;28;20855;-69
2022/05/16 07:47:41;;;;;;;2.38;1.00;;;20.40;61.70;;;;;;5094119;28;20785;-68
2022/05/16 07:50:29;;;;;;;0.90;0.70;;;21.70;59.20;;;;;;5092212;28;20227;-69
2022/05/16 07:53:22;;;;;;;2.38;1.05;;;21.70;55.60;;;;;;5096171;28;20218;-70
2022/05/16 07:56:12;;;;;;;1.77;0.90;;;22.80;55.80;;;;;;5096316;28;20697;-72
2022/05/16 07:59:02;;;;;;;4.80;1.08;;;22.80;53.80;;;;;;5075217;28;20267;-72
2022/05/16 08:01:51;;;;;;;3.78;1.00;;;22.40;54.80;;;;;;5098729;27;20253;-72
2022/05/16 08:04:41;;;;;;;3.67;1.20;;;22.20;54.50;;;;;;5076521;28;20227;-73
2022/05/16 08:07:30;;;;;;;5.20;1.40;;;23.70;54.20;;;;;;5088948;27;21048;-73
2022/05/16 08:10:29;;;;;;;2.58;1.10;;;24.20;51.80;;;;;;5081660;27;20240;-73
2022/05/16 08:13:20;;;;;;;1.77;1.00;;;24.40;52.60;;;;;;5100680;27;20231;-73
2022/05/16 08:16:10;;;;;;;4.28;1.20;;;25.80;50.60;;;;;;5082008;28;20229;-73
2022/05/16 08:18:59;;;;;;;7.55;1.10;;;26.20;47.10;;;;;;5081278;27;20246;-70
2022/05/16 08:21:49;;;;;;;3.95;1.10;;;26.00;48.20;;;;;;5099707;27;20218;-72
2022/05/16 08:24:37;;;;;;;2.80;1.10;;;26.20;47.00;;;;;;5077505;28;20221;-72
2022/05/16 08:27:27;;;;;;;3.08;1.13;;;26.80;46.90;;;;;;5085357;28;21336;-72
2022/05/16 08:30:18;;;;;;;3.38;1.30;;;27.20;44.90;;;;;;5078371;27;20275;-72
2022/05/16 08:33:07;;;;;;;3.33;1.17;;;27.50;46.10;;;;;;5095964;27;20227;-72
2022/05/16 08:42:11;;;;;;;1.35;1.20;;;27.10;42.90;;;;;;5080011;28;20231;-72
2022/05/16 08:45:02;;;;;;;3.55;1.30;;;26.80;45.20;;;;;;5082473;27;20895;-72
2022/05/16 08:47:55;;;;;;;1.83;1.10;;;27.60;42.80;;;;;;5077563;27;20642;-72
2022/05/16 08:50:51;;;;;;;4.50;0.90;;;29.30;42.20;;;;;;5092764;28;20215;-73
2022/05/16 08:53:43;;;;;;;1.90;0.77;;;28.90;41.60;;;;;;5089425;28;20923;-71
2022/05/16 08:56:36;;;;;;;1.00;0.82;;;27.30;40.90;;;;;;5095039;27;20312;-73
2022/05/16 08:59:26;;;;;;;1.48;1.00;;;28.50;40.90;;;;;;5079283;28;20305;-73
2022/05/16 09:02:20;;;;;;;3.08;1.00;;;31.00;38.80;;;;;;5093987;27;20227;-74
2022/05/16 09:05:19;;;;;;;3.60;1.00;;;28.90;39.00;;;;;;5077735;28;20212;-72
2022/05/16 09:08:13;;;;;;;1.80;1.10;;;29.70;38.30;;;;;;5094787;27;20215;-73
2022/05/16 09:11:09;;;;;;;2.05;1.15;;;28.20;37.80;;;;;;5092684;28;20340;-73
2022/05/16 09:14:03;;;;;;;6.50;1.00;;;28.30;40.20;;;;;;5095550;27;20231;-73
2022/05/16 09:16:58;;;;;;;2.78;1.10;;;29.90;38.40;;;;;;5071595;27;20524;-73
2022/05/16 09:20:02;;;;;;;2.47;1.20;;;31.50;36.50;;;;;;5094538;27;20218;-73
2022/05/16 09:23:00;;;;;;;2.53;1.10;;;33.50;35.80;;;;;;5075433;28;21053;-74
2022/05/16 09:26:02;;;;;;;2.05;1.00;;;30.30;36.50;;;;;;5094067;27;20228;-74
2022/05/16 09:28:57;;;;;;;2.42;0.80;;;29.00;37.20;;;;;;5092438;28;20232;-69
2022/05/16 09:31:49;;;;;;;1.73;1.00;;;29.80;36.10;;;;;;5094834;28;20617;-69
2022/05/16 09:34:47;;;;;;;2.47;1.10;;;32.10;34.10;;;;;;5094447;27;20333;-70
2022/05/16 09:37:36;;;;;;;3.92;1.00;;;33.10;33.70;;;;;;5080049;28;20222;-68
2022/05/16 09:40:34;;;;;;;3.70;1.00;;;31.10;35.90;;;;;;5089707;28;20247;-68
2022/05/16 09:43:29;;;;;;;2.40;1.00;;;32.20;35.50;;;;;;5096192;27;20279;-70
2022/05/16 09:46:27;;;;;;;1.35;0.80;;;30.60;36.40;;;;;;5105963;27;21141;-71
2022/05/16 09:49:21;;;;;;;1.98;1.00;;;31.90;35.00;;;;;;5077635;28;20223;-69
2022/05/16 09:52:17;;;;;;;2.38;1.20;;;31.40;36.00;;;;;;5090454;27;20333;-68
2022/05/16 09:55:09;;;;;;;3.55;1.40;;;29.70;36.90;;;;;;5087774;28;20237;-70
2022/05/16 09:58:01;;;;;;;3.50;1.77;;;31.20;37.70;;;;;;5094391;27;20233;-70
2022/05/16 10:00:56;;;;;;;3.03;1.40;;;33.10;35.90;;;;;;5092711;27;20226;-67
2022/05/16 10:03:49;;;;;;;3.10;1.10;;;32.50;36.00;;;;;;5090487;27;20305;-71
2022/05/16 10:06:41;;;;;;;2.97;1.23;;;29.60;37.40;;;;;;5095890;27;20764;-72
2022/05/16 10:09:33;;;;;;;3.47;1.25;;;25.90;40.80;;;;;;5066172;27;20265;-72
2022/05/16 10:12:24;;;;;;;2.58;1.17;;;24.90;41.70;;;;;;5097242;27;20266;-71
2022/05/16 10:15:15;;;;;;;3.05;1.20;;;25.60;41.40;;;;;;5074632;28;20222;-72
2022/05/16 10:18:08;;;;;;;5.38;1.30;;;27.20;39.70;;;;;;5074182;28;20218;-72
2022/05/16 10:21:01;;;;;;;4.50;1.73;;;27.10;40.60;;;;;;5092248;28;20227;-73
2022/05/16 10:23:51;;;;;;;1.95;1.40;;;28.20;40.40;;;;;;5091854;27;20241;-73
2022/05/16 10:26:49;;;;;;;2.00;1.20;;;29.30;39.40;;;;;;5083483;28;20228;-72
2022/05/16 10:29:40;;;;;;;2.75;1.20;;;29.80;38.70;;;;;;5085865;28;20318;-74
2022/05/16 10:35:49;;;;;;;1.90;1.45;;;30.10;37.80;;;;;;5079735;28;20739;-73
2022/05/16 10:38:44;;;;;;;4.25;1.15;;;30.00;37.90;;;;;;5091159;27;20230;-73
2022/05/16 10:41:37;;;;;;;1.35;1.08;;;30.50;37.80;;;;;;5090948;28;20274;-73
2022/05/16 10:44:31;;;;;;;5.97;1.33;;;29.20;38.00;;;;;;5081629;28;20579;-70
2022/05/16 10:47:26;;;;;;;1.73;0.80;;;31.50;36.60;;;;;;5081963;28;20225;-72
2022/05/16 10:50:21;;;;;;;2.90;1.00;;;29.80;35.60;;;;;;5086568;28;20278;-70
2022/05/16 13:31:03;;;;;;;2.30;0.90;;;23.50;39.50;;;;;;5012395;27;1371352;-76
2022/05/16 13:33:53;;;;;;;1.25;0.85;;;22.60;39.90;;;;;;5058474;28;20235;-78
2022/05/16 13:36:45;;;;;;;1.60;1.10;;;22.10;40.80;;;;;;5057893;28;20216;-77
2022/05/16 13:39:37;;;;;;;2.85;0.90;;;21.70;41.10;;;;;;5061475;28;20216;-75
2022/05/16 13:42:29;;;;;;;3.58;0.93;;;21.90;41.10;;;;;;5067908;28;20223;-77
2022/05/16 13:45:24;;;;;;;2.13;0.90;;;21.60;41.70;;;;;;5069187;28;20222;-74
2022/05/16 13:48:17;;;;;;;5.88;1.08;;;21.80;42.40;;;;;;5069859;28;20247;-74
2022/05/16 13:51:07;;;;;;;2.35;1.10;;;21.30;42.10;;;;;;5071498;28;20272;-76
2022/05/16 13:53:55;;;;;;;2.05;0.85;;;21.30;42.80;;;;;;5087075;28;20222;-75
2022/05/16 13:56:49;;;;;;;1.65;1.00;;;21.10;42.60;;;;;;5073226;28;20219;-74
2022/05/16 13:59:38;;;;;;;1.83;0.85;;;21.50;43.10;;;;;;5072606;28;20845;-74
2022/05/16 14:02:27;;;;;;;1.60;0.93;;;21.40;42.60;;;;;;5070982;28;20230;-75
2022/05/16 14:05:26;;;;;;;1.17;0.80;;;21.70;42.40;;;;;;5066015;28;20211;-74
2022/05/16 14:08:22;;;;;;;1.30;0.90;;;21.50;42.20;;;;;;5087224;28;20220;-75
2022/05/16 14:11:15;;;;;;;3.53;0.95;;;21.50;42.20;;;;;;5072871;28;20707;-74
2022/05/16 14:14:04;;;;;;;3.67;1.10;;;20.90;42.80;;;;;;5069184;28;20779;-75
2022/05/16 14:16:55;;;;;;;3.42;0.90;;;20.90;43.80;;;;;;5069086;28;20260;-75
2022/05/16 14:19:46;;;;;;;2.95;0.93;;;21.20;43.10;;;;;;5074794;28;20579;-75
2022/05/16 14:22:43;;;;;;;1.38;0.80;;;21.20;43.50;;;;;;5072501;28;20421;-74
2022/05/16 14:25:40;;;;;;;3.45;0.88;;;21.10;42.90;;;;;;5066442;28;20696;-75
2022/05/16 14:28:34;;;;;;;4.50;1.02;;;21.20;44.20;;;;;;5072985;28;20683;-73
2022/05/16 14:31:27;;;;;;;3.42;0.80;;;20.90;43.80;;;;;;5063310;28;20231;-74
2022/05/16 14:34:26;;;;;;;3.97;0.88;;;20.70;44.00;;;;;;5067165;28;20306;-74
2022/05/16 14:37:23;;;;;;;4.32;0.93;;;20.50;44.60;;;;;;5068395;28;20733;-74
2022/05/16 14:40:18;;;;;;;2.97;0.90;;;20.90;44.70;;;;;;5067528;28;20517;-70
2022/05/16 14:43:10;;;;;;;2.92;1.10;;;21.20;44.50;;;;;;5061703;28;20657;-70
2022/05/16 14:49:16;;;;;;;5.80;1.10;;;21.60;44.10;;;;;;5057027;28;20650;-71
2022/05/16 14:52:05;;;;;;;1.90;0.90;;;21.60;43.80;;;;;;5059426;28;20332;-72
2022/05/16 14:54:59;;;;;;;3.00;0.93;;;21.40;44.00;;;;;;5058312;28;20604;-70
2022/05/16 14:57:50;;;;;;;5.00;1.02;;;21.10;44.20;;;;;;5058532;28;20696;-71
2022/05/16 15:04:04;;;;;;;3.00;1.17;;;21.10;44.20;;;;;;5055577;28;20220;-71
2022/05/16 15:06:53;;;;;;;4.70;0.85;;;21.40;43.80;;;;;;5059218;28;20236;-71
2022/05/16 15:09:42;;;;;;;3.70;0.95;;;21.10;44.30;;;;;;5068103;28;20220;-71
2022/05/16 15:12:31;;;;;;;1.17;0.80;;;21.40;44.40;;;;;;5057177;28;20275;-72
2022/05/16 15:15:21;;;;;;;2.83;0.98;;;21.30;44.30;;;;;;5056880;28;20319;-71
2022/05/16 15:18:11;;;;;;;4.75;0.90;;;21.20;44.20;;;;;;5060961;28;20216;-71
2022/05/16 15:20:59;;;;;;;4.03;0.90;;;21.00;44.90;;;;;;5062275;28;20342;-71
2022/05/16 15:23:49;;;;;;;3.38;0.80;;;21.20;44.70;;;;;;5068713;28;20315;-72
2022/05/16 15:26:38;;;;;;;4.03;1.20;;;20.80;44.90;;;;;;5060077;28;20231;-71
2022/05/16 15:29:27;;;;;;;3.95;1.23;;;20.40;45.70;;;;;;5056892;28;20236;-71
2022/05/16 15:32:18;;;;;;;1.88;1.10;;;20.20;46.20;;;;;;5057818;28;20224;-73
2022/05/16 15:35:08;;;;;;;4.03;0.90;;;20.30;46.00;;;;;;5058004;28;20236;-71
2022/05/16 15:37:57;;;;;;;1.95;0.80;;;20.30;46.00;;;;;;5056983;28;20232;-71
2022/05/16 15:40:47;;;;;;;3.42;0.80;;;20.60;46.10;;;;;;5051756;28;20231;-71
2022/05/16 15:43:36;;;;;;;1.52;1.00;;;20.60;45.50;;;;;;5059229;28;20228;-71
2022/05/16 15:46:25;;;;;;;2.42;1.20;;;20.60;46.10;;;;;;5049131;28;20694;-72
2022/05/16 15:49:15;;;;;;;2.10;1.08;;;20.60;45.90;;;;;;5060603;28;20339;-72
2022/05/16 15:52:04;;;;;;;1.52;0.80;;;20.50;45.70;;;;;;5061079;28;20228;-73
2022/05/16 15:54:54;;;;;;;2.40;0.80;;;20.40;45.80;;;;;;5055460;28;20716;-73
2022/05/16 15:57:42;;;;;;;3.63;0.80;;;20.70;45.90;;;;;;5054481;28;20742;-72
2022/05/16 16:00:32;;;;;;;1.73;0.90;;;20.40;46.00;;;;;;5053281;28;20730;-71
2022/05/16 16:09:54;;;;;;;1.30;0.85;;;20.10;46.90;;;;;;5052225;28;20227;-72
2022/05/16 16:12:43;;;;;;;1.05;0.82;;;20.20;46.70;;;;;;5053973;28;20707;-72
2022/05/16 16:15:34;;;;;;;3.28;0.93;;;20.20;47.00;;;;;;5057400;28;21007;-72
2022/05/16 16:18:25;;;;;;;3.20;1.40;;;20.30;46.90;;;;;;5058118;28;20228;-71
2022/05/16 16:21:14;;;;;;;2.35;0.90;;;20.50;47.20;;;;;;5059956;28;20235;-72
2022/05/16 16:24:05;;;;;;;0.85;0.80;;;20.20;47.10;;;;;;5037501;28;20320;-70
2022/05/16 16:26:53;;;;;;;3.45;0.80;;;19.90;47.20;;;;;;5045473;28;20274;-71
2022/05/16 16:29:42;;;;;;;4.97;1.00;;;20.00;47.60;;;;;;5034960;28;20236;-72
2022/05/16 16:32:35;;;;;;;5.50;1.00;;;19.90;48.30;;;;;;5052180;28;20227;-72
2022/05/16 16:35:24;;;;;;;1.73;1.13;;;20.10;47.50;;;;;;5058427;28;20680;-72
2022/05/16 16:38:15;;;;;;;5.00;1.25;;;20.50;47.00;;;;;;5057596;28;20311;-72
2022/05/16 16:41:09;;;;;;;4.10;1.05;;;20.30;47.50;;;;;;5059710;28;20293;-72
2022/05/16 16:43:58;;;;;;;5.63;1.17;;;20.00;47.70;;;;;;5054486;28;20220;-72
2022/05/16 16:46:49;;;;;;;1.02;0.90;;;20.00;47.60;;;;;;5050798;28;20761;-72
2022/05/16 16:49:38;;;;;;;1.20;1.10;;;19.80;48.00;;;;;;5053104;28;20317;-72
2022/05/16 16:58:40;;;;;;;1.23;0.90;;;19.80;48.70;;;;;;5054296;28;20227;-71
2022/05/16 17:01:29;;;;;;;3.17;1.00;;;19.90;48.20;;;;;;5050084;28;20220;-72
2022/05/16 17:04:18;;;;;;;1.42;0.95;;;20.20;48.40;;;;;;5055255;28;20246;-73
2022/05/16 17:07:11;;;;;;;1.13;1.00;;;20.20;48.20;;;;;;5052274;28;20244;-72
2022/05/16 17:10:04;;;;;;;3.33;0.90;;;19.70;48.00;;;;;;5057267;28;20256;-72
2022/05/16 17:12:53;;;;;;;1.00;0.90;;;19.70;48.30;;;;;;5055977;28;20224;-72
2022/05/16 17:15:44;;;;;;;4.38;1.00;;;19.90;48.30;;;;;;5053693;28;20248;-72
2022/05/16 17:18:34;;;;;;;4.63;1.00;;;20.10;48.30;;;;;;5054312;28;20232;-72
2022/05/16 17:21:23;;;;;;;6.07;1.10;;;20.20;48.30;;;;;;5056323;28;20678;-73
2022/05/16 17:24:12;;;;;;;1.50;0.98;;;20.30;48.70;;;;;;5053985;28;20225;-70
2022/05/16 17:27:01;;;;;;;5.20;1.05;;;20.20;48.20;;;;;;5054222;28;20220;-71
2022/05/16 17:29:49;;;;;;;3.30;1.30;;;20.00;48.60;;;;;;5053879;28;20346;-71
2022/05/16 17:32:40;;;;;;;5.75;1.10;;;20.10;48.50;;;;;;5066986;28;20290;-70
2022/05/16 17:35:29;;;;;;;2.88;1.10;;;20.10;48.80;;;;;;5049190;28;20220;-73
2022/05/16 17:38:22;;;;;;;2.60;1.40;;;20.20;48.70;;;;;;5056446;28;20223;-72
2022/05/16 17:41:14;;;;;;;3.67;1.30;;;20.10;49.20;;;;;;5052309;28;20385;-71
2022/05/16 17:44:04;;;;;;;9.32;1.88;;;20.00;49.70;;;;;;5052243;28;20315;-73
2022/05/16 17:46:52;;;;;;;3.08;1.30;;;19.90;50.30;;;;;;5049107;28;20716;-72
2022/05/16 17:49:44;;;;;;;5.72;1.65;;;19.80;51.00;;;;;;5054782;28;20721;-72
2022/05/16 17:52:34;;;;;;;3.00;1.48;;;19.70;50.90;;;;;;5051973;28;20322;-71
2022/05/16 17:55:22;;;;;;;3.67;1.48;;;19.80;50.90;;;;;;5050331;28;20208;-72
2022/05/16 17:58:12;;;;;;;3.10;1.33;;;19.70;51.20;;;;;;5046675;28;20339;-72
2022/05/16 18:01:03;;;;;;;1.70;1.02;;;19.40;50.80;;;;;;5050852;28;20248;-71
2022/05/16 18:03:51;;;;;;;2.38;0.88;;;19.30;51.10;;;;;;5050841;28;20604;-72
2022/05/16 18:06:44;;;;;;;3.08;1.08;;;19.50;50.80;;;;;;5050362;28;20224;-69
2022/05/16 18:09:33;;;;;;;2.70;1.08;;;19.40;50.70;;;;;;5054537;28;20235;-70
2022/05/16 18:15:29;;;;;;;2.05;1.10;;;19.30;51.70;;;;;;5048640;28;20262;-71
2022/05/16 18:18:19;;;;;;;3.53;1.80;;;19.40;51.50;;;;;;5054849;28;20604;-72
2022/05/16 18:21:09;;;;;;;6.07;1.67;;;19.40;51.50;;;;;;5060224;28;20224;-71
2022/05/16 18:24:05;;;;;;;4.32;1.30;;;19.30;51.60;;;;;;5055013;28;20267;-70